e-Mail: Password: Lost your password? Click here. - Register a new user

c h a v e z j u a r e z . c o m

Weather - Tiempo - Wetter - Temps

METAR DATA MMMX (Mexico City)

Mexico City / Licenci, Mexico (MMMX) 19-26N 099-06W
Dec 12, 2019 - 09:42 PM EST / 2019.12.13 0242 UTC
Wind: from the NNE (030 degrees) at 8 MPH (7 KT):0
Visibility: 10 mile(s):0
Sky conditions: partly cloudy
Temperature: 64 F (18 C)
Dew Point: 41 F (5 C)
Relative Humidity: 42%
Pressure (altimeter): 30.37 in. Hg (1028 hPa)
Pressure tendency: 0.05 inches (1.8 hPa) higher than three hours ago
ob: MMMX 130242Z 03007KT 10SM FEW030 SCT080 SCT220 18/05 A3037 NOSIG RMK SLP168 52018 965 8/532
cycle: 2

Mexico City

St. Prex




Current weather alarms for Switzerland


www.wetteralarm.ch